TOURFACTS.DK  
Stats and Facts from Tour de France.

Tour de France 2019 starts in 323 days
  Riders   Stages   Teams   Summits   Yearly  


 
Search by year

After 2018 - Stage 21:
 15000 starters.
  5165 different riders.
  638 teams.
  2253 stages.
  456 restdays.
  442940.60 km.
  5684 abandonnees.


Top 3
GC
Geraint Thomas83:17:13
Tom Dumoulin83:19:04
Christopher Froome83:19:37
Climb
Julian Alaphilippe170 pt.
Warren Barguil91 pt.
Rafal Majka76 pt.
Sprint
Peter Sagan477 pt.
Alexander Kristoff246 pt.
Arnaud Démare203 pt.
Youth
Pierre-Roger Latou..83:39:26
Egan Bernal83:45:05
Guillaume Martin84:01:31
Facts from Tour de France 1949
  |   Stages.  |   Stage winners.  |   Days in yellow  |   Average speed.  |   Route.  |   Teams.  |   All riders.  |   Rookies.  |  

  |   Withdrawls.  |   GC.  |   Polka  |   Green  |   White  |   Summits. (In tour)  |   Miscellaneous.  |  

Stage 6 on 05 - 07 - 1949
         Owning:    Jacques Marinelli    
Pick a stage:  1 2 3 4 5 6 7 8 9 10 11 12 13 14 15 16 17 18 19 20 21
  Saint-MaloLes Sables-d´Olonne | Dist: 305.00 km.

Average speed for all riders in stage:  34,979 km./hr.
    Place:Name:Team:Time:Km/h:
1
ITAAdolphe DeleddaFRASouth-East08:39:07  +  00:00:00=35,252 
2
BELStan OckersBELBelgium08:39:20  +  00:00:13=35,237 
3
SUIFerdi KüblerCHESwitzerland08:39:22  +  00:00:15=35,235 
44 ITAGino BartaliITAItaly08:39:22  +  00:00:15=35,235 
55 FRAJean RobicFRAWest-North08:39:22  +  00:00:15=35,235 
66 ITAGino SciardisITAItaly08:39:22  +  00:00:15=35,235 
77 FRARoger Le NizerhyFRAWest-North08:39:22  +  00:00:15=35,235 
88 BELRik Van SteenbergenBELBelgium08:39:22  +  00:00:15=35,235 
99 BELMarcel KintBELBelgium08:39:22  +  00:00:15=35,235 
1010 BELMarcel HendrickxBELAiglons Belges08:39:22  +  00:00:15=35,235 
1111 LUXMarcel ErnzerLUXLuxembourg08:39:22  +  00:00:15=35,235 
1212 FRAAndré BruléFRAIle De France08:39:22  +  00:00:15=35,235 
1313 ITASylvio PedroniITACadetti Italiens08:39:22  +  00:00:15=35,235 
1414 FRAJean ReyFRASouth-East08:39:22  +  00:00:15=35,235 
1515 BELJacques GeusBELAiglons Belges08:39:22  +  00:00:15=35,235 
1616 FRAGeorges MartinFRASouth-East08:39:22  +  00:00:15=35,235 
1717 ITAAlfredo MartiniITACadetti Italiens08:39:22  +  00:00:15=35,235 
1818 FRALucien TeisseireFRAFrance08:39:22  +  00:00:15=35,235 
1919 BELFlorent MathieuBELBelgium08:39:22  +  00:00:15=35,235 
2020 FRALouis CaputFRAIle De France08:39:22  +  00:00:15=35,235 
2121 BELBriek SchotteBELBelgium08:39:22  +  00:00:15=35,235 
2222 BELRaymond ImpanisBELBelgium08:39:22  +  00:00:15=35,235 
2323 FRALouis DeprezFRAFrance08:39:22  +  00:00:15=35,235 
2424 LUXJean KirchenLUXLuxembourg08:39:22  +  00:00:15=35,235 
2525 FRAJacques MarinelliFRAIle De France08:39:22  +  00:00:15=35,235 
2626 ITAVittorio MagniITACadetti Italiens08:39:22  +  00:00:15=35,235 
2727 ITAFausto CoppiITAItaly08:39:22  +  00:00:15=35,235 
2828 ITAFermo CamelliniFRASouth-East08:39:22  +  00:00:15=35,235 
2929 BELJoseph VerhaertBELAiglons Belges08:39:22  +  00:00:15=35,235 
3030 FRAPaul GiguetFRASouth-East08:39:22  +  00:00:15=35,235 
3131 BELRoger LambrechtBELBelgium08:39:22  +  00:00:15=35,235 
3232 FRARaymond LucasFRAIle De France08:39:22  +  00:00:15=35,235 
3333 FRARobert ChapatteFRAFrance08:39:22  +  00:00:15=35,235 
3434 FRAGuy LapébieFRAFrance08:39:22  +  00:00:15=35,235 
3535 ITAVincenzo RosselloITAItaly08:39:22  +  00:00:15=35,235 
3636 BELDésiré KeteleerBELBelgium08:39:22  +  00:00:15=35,235 
3737 ITAArmando PeverelliITACadetti Italiens08:39:22  +  00:00:15=35,235 
3838 BELMarcel De MulderBELAiglons Belges08:39:22  +  00:00:15=35,235 
3939 BELMarcel DupontBELAiglons Belges08:39:22  +  00:00:15=35,235 
4040 FRARoger LevequeFRACenter-South West08:39:22  +  00:00:15=35,235 
4141 FRARaphaël GeminianiFRAFrance08:39:22  +  00:00:15=35,235 
4242 FRARobert DesbatsFRACenter-South West08:39:22  +  00:00:15=35,235 
4343 ITAGiuseppe TaccaFRAIle De France08:39:22  +  00:00:15=35,235 
4444 FRAPierre CoganFRAWest-North08:39:22  +  00:00:15=35,235 
4545 FRAJean-Marie GoasmatFRAWest-North08:39:22  +  00:00:15=35,235 
4646 BELEdward Van DijckBELBelgium08:39:22  +  00:00:15=35,235 
4747 ITAEttore MilanoITAItaly08:39:22  +  00:00:15=35,235 
4848 FRARené ViettoFRAFrance08:39:22  +  00:00:15=35,235 
4949 ITAÉdouard FachleitnerFRASouth-East08:39:22  +  00:00:15=35,235 
5050 LUXJean DiederichLUXLuxembourg08:39:22  +  00:00:15=35,235 
5151 ITAGiovanni CorrieriITAItaly08:39:22  +  00:00:15=35,235 
5252 LUXJean GoldschmitLUXLuxembourg08:39:22  +  00:00:15=35,235 
5353 ITAAngelo BrignoleITAItaly08:39:22  +  00:00:15=35,235 
5454 ITASerifano BiagioniITAItaly08:39:22  +  00:00:15=35,235 
5555 FRAJean-Apotre LazaridesFRAFrance08:39:22  +  00:00:15=35,235 
5656 SUIGeorges AeschlimannCHESwitzerland08:39:22  +  00:00:15=35,235 
5757 NEDWim De RuyterNLDHolland08:39:52  +  00:00:45=35,201 
5858 FRAHenri MassalFRACenter-South West08:40:11  +  00:01:04=35,180 
5959 ITALuciano PezziITAItaly08:41:36  +  00:02:29=35,084 
6060 FRAEdouard MullerFRAIle De France08:43:21  +  00:04:14=34,967 
6161 SUIRoger AeschlimannCHESwitzerland08:43:21  +  00:04:14=34,967 
6262 FRAGeorges RamouluxFRACenter-South West08:43:21  +  00:04:14=34,967 
6363 ITAMario RicciITAItaly08:43:21  +  00:04:14=34,967 
6464 SUIPierre BrambillaFRASouth-East08:43:21  +  00:04:14=34,967 
6565 FRAAntonin RollandFRASouth-East08:46:45  +  00:07:38=34,741 
6666 FRAPaul PineauFRACenter-South West08:46:45  +  00:07:38=34,741 
6767 FRALouison BobetFRAFrance08:46:45  +  00:07:38=34,741 
6868 BELNorbert CallensBELBelgium08:46:45  +  00:07:38=34,741 
6969 FRAEmile IdéeFRAIle De France08:46:45  +  00:07:38=34,741 
7070 FRABernard GauthierFRAFrance08:46:45  +  00:07:38=34,741 
7171 FRALucien LazaridesFRAFrance08:46:45  +  00:07:38=34,741 
7272 SUIGottfried WeilenmannCHESwitzerland08:46:45  +  00:07:38=34,741 
7373 MARCustodio Dos ReisFRACenter-South West08:49:27  +  00:10:20=34,564 
7474 FRAAndre MahéFRAWest-North08:49:27  +  00:10:20=34,564 
7575 GERCésar MarcelakFRAWest-North08:52:52  +  00:13:45=34,343 
7676 FRACamille DanguillaumeFRAFrance08:52:52  +  00:13:45=34,343 
7777 FRAMaurice DiotFRAFrance08:52:52  +  00:13:45=34,343 
7878 ITANello LaurediFRASouth-East08:52:52  +  00:13:45=34,343 
7979 FRAAnge Le StratFRAWest-North08:52:52  +  00:13:45=34,343 
8080 ITAGuido De SantiITAItaly08:52:52  +  00:13:45=34,343 
8181 ITAGiuseppe AusendaITACadetti Italiens08:52:52  +  00:13:45=34,343 
8282 BELRoger GhyselinckBELBelgium08:52:52  +  00:13:45=34,343 
8383 FRAAlbert DolhatsFRACenter-South West08:52:52  +  00:13:45=34,343 
8484 ITABruno PasquiniITAItaly08:52:52  +  00:13:45=34,343 
8585 NEDHenk de HoogNLDHolland08:39:07  +  00:00:00=35,252 
8686 NEDFrans PauwelsNLDHolland09:01:33  +  00:22:26=33,792 
8787 FRAMarcel DussaultFRACenter-South West09:09:45  +  00:30:38=33,288 
8888 FRAJean BlancFRACenter-South West09:23:53  +  00:44:46=32,454 

Withdrawls: 4
 
Rider
Team
Reason
39  SUIHans HutmacherCHESwitzerlandDid not finish
41  SUIErnst StettlerCHESwitzerlandDid not finish
54  NEDHuub SijenNLDHollandDid not finish
60  ESPJosé SerraESPSpainDid not finish
Todays birthdays.

1874  Achille Colas
1895  Lucien Meunier
1902  Lazare Venot
1915  Albert Gijsen
1924  Marcel Zelasco
1930  Juan Campillo
1931  Jean-Claude Skerl
1934  Jean Selic
1935  Arnaldo Pambianco
1955  Mario Beccia
1956  Daniel Willems
1957  Dominique Sanders
1959  Marc Sergeant
1960  Éric Caritoux
1963  Jelle Nijdam
1971  Arnaud Prétot
1980  Piet Rooijakkers